Airport ICAO


18:50 UTC

14°C

Clear skies


An affordable passengers' Moving Map for your aircraft. Made for the iPad and the iPhone
More information here

LFLS Saint Geoirs


Grenoble FRANCE   VFR CAVOK


METAR LFLS 231830Z AUTO VRB02KT CAVOK 14/02 Q1025 NOSIG 0h20min

TAF LFLS 231400Z 2315/2415 35006KT CAVOK BECMG 2318/2320 VRB03KT PROB30 TEMPO 2403/2407 4000 BR BECMG 2410/2412 34008KT 4h50min





NOTAMS

OPEN